Aeroporto :
LOGIN :

Iscrizione | Disclaimer

   EN    FR    IT 

 










Sommario :    VFR   VFR Marginale   IFR   IFR Intensivo   IFR Molto Intensivo
Visibilità : 
Base nubi : 
>= 8 km
>= 3000ft
5 / 8 km
1000 / 3000 ft
1500m / 5 km
500 / 1000 ft
800 / 1500m
200 / 500 ft
< 800m
< 200 ft
Simboli :   Temporali  Nebbia  Neve Forte  Precipitazioni Forti  Vento > 20 kt
SIGMETs :   Varie  Temporali  Ghiacco  Turbolenza  Onda orograficha  Ceneri Vulcaniche






- Altitudine del aeroporto : 187 ft


ETNW - Wunstorf AB

ULTIMO METAR :
  • 180220Z 25012KT 9999 SCT015 BKN030 06/04 Q1014 BLU

METARs OBSOLETI :
  • 180120Z 25014KT 9999 -SHRA FEW010 SCT020CB BKN050 06/04 Q1014 RESHRA BLU
  • 180105Z 26014KT 8000 -SHRA FEW010 SCT020CB BKN050 06/04 Q1014 RESHRA BLU
  • 180050Z 26015KT 5000 SHRA FEW010 BKN020CB 06/04 Q1013 WHT
  • 180035Z 27016KT 6000 SHRA FEW015 BKN030CB BKN130 07/04 Q1013 WHT
  • 180020Z 25013KT 9999 FEW028 SCT060 BKN130 06/04 Q1013 BLU

TAF TAF ETNW
Valido dal 18 a 00 ore il 19 a 00 ore UTC


172300Z 1800/1824 24015G25KT 9999 NSW BKN040
TEMPO 1800/1818 26020G35KT 4000 SHRA SCT010 BKN015CB BY ETGL



MetMap, La meteo Aeronautica in un colpo d'occhio ! - Copyright ORBIFLY Dicembre 2007 - Disclaimer

ORBIFLY MET'MAP TEAM :

Programmazione e sviluppo : Alexandra Zaïnal
Concezione : Baudouin d'Aumeries
Aiuto per la programmazione : Marc-Olivier Méhu
Supporto tecnico e logistico : Manuel Goepfert
Aiuto per la traduzione : Arnaldo La Scala

Contatto : metmap@orbifly.com




FONTI E CREDITI :

   NOAA